Time;durP1;ratioP1;P1;durP2;ratioP2;P2;SDS_P1;SDS_P2;PMS_P1;PMS_P2;Temp;Humidity;BMP_temperature;BMP_pressure;BME280_temperature;BME280_humidity;BME280_pressure;Samples;Min_cycle;Max_cycle;Signal;HPM_P1;HPM_P2
2022/02/07 00:03:49;;;;;;;1.52;1.42;;;;;;;;;;5068085;28;20037;-78
2022/02/07 00:06:15;;;;;;;3.00;0.47;;;;;;;;;;5058304;28;20093;-78
2022/02/07 00:08:42;;;;;;;1.50;1.35;;;;;;;;;;5077984;28;20105;-78
2022/02/07 00:11:08;;;;;;;0.30;0.30;;;;;;;;;;5074106;28;20029;-78
2022/02/07 00:13:34;;;;;;;0.10;0.10;;;;;;;;;;5075326;28;20050;-78
2022/02/07 00:16:00;;;;;;;0.10;0.10;;;;;;;;;;5080050;28;20089;-78
2022/02/07 00:18:26;;;;;;;0.10;0.10;;;;;;;;;;5071550;28;20060;-78
2022/02/07 00:20:52;;;;;;;1.55;0.40;;;;;;;;;;5080853;28;20032;-78
2022/02/07 00:23:19;;;;;;;0.73;0.50;;;;;;;;;;5082478;28;20028;-78
2022/02/07 00:25:45;;;;;;;1.70;0.25;;;;;;;;;;5076323;28;20297;-78
2022/02/07 00:28:11;;;;;;;0.13;0.13;;;;;;;;;;5071093;28;20036;-77
2022/02/07 00:30:38;;;;;;;0.10;0.10;;;;;;;;;;5074304;28;20412;-79
2022/02/07 00:33:05;;;;;;;0.10;0.10;;;;;;;;;;5074741;28;20032;-78
2022/02/07 00:35:31;;;;;;;0.10;0.10;;;;;;;;;;5065664;28;20032;-77
2022/02/07 00:38:01;;;;;;;0.10;0.10;;;;;;;;;;5074457;28;20069;-78
2022/02/07 00:40:44;;;;;;;0.47;0.20;;;;;;;;;;5072781;28;20024;-78
2022/02/07 00:45:54;;;;;;;0.43;0.43;;;;;;;;;;5071045;28;20048;-77
2022/02/07 00:48:24;;;;;;;0.28;0.28;;;;;;;;;;5072392;28;20543;-77
2022/02/07 00:50:51;;;;;;;0.10;0.10;;;;;;;;;;5068082;28;20051;-77
2022/02/07 00:53:17;;;;;;;0.40;0.40;;;;;;;;;;5069728;28;20044;-79
2022/02/07 00:55:43;;;;;;;0.00;0.00;;;;;;;;;;5050328;28;20035;-79
2022/02/07 00:58:09;;;;;;;0.20;0.20;;;;;;;;;;5067216;28;20027;-79
2022/02/07 01:00:35;;;;;;;0.10;0.10;;;;;;;;;;5064485;28;20215;-79
2022/02/07 01:03:02;;;;;;;0.10;0.10;;;;;;;;;;5068169;28;20055;-79
2022/02/07 01:05:28;;;;;;;0.43;0.43;;;;;;;;;;5062193;28;20322;-79
2022/02/07 01:07:57;;;;;;;0.10;0.10;;;;;;;;;;5087467;28;20070;-79
2022/02/07 01:10:29;;;;;;;0.30;0.30;;;;;;;;;;5074462;28;20048;-79
2022/02/07 01:53:32;;;;;;;0.00;0.00;;;;;;;;;;5069837;28;20044;-79
2022/02/07 01:56:02;;;;;;;0.00;0.00;;;;;;;;;;5068438;28;20032;-79
2022/02/07 01:58:29;;;;;;;0.00;0.00;;;;;;;;;;5075789;28;20494;-78
2022/02/07 02:00:55;;;;;;;0.00;0.00;;;;;;;;;;5071592;28;20063;-79
2022/02/07 02:03:21;;;;;;;1.55;1.45;;;;;;;;;;5075674;28;20020;-78
2022/02/07 02:05:47;;;;;;;0.10;0.10;;;;;;;;;;5083741;28;20096;-79
2022/02/07 02:08:18;;;;;;;0.00;0.00;;;;;;;;;;5073550;28;20278;-79
2022/02/07 02:10:47;;;;;;;0.15;0.15;;;;;;;;;;5074003;28;20030;-79
2022/02/07 02:13:18;;;;;;;0.13;0.13;;;;;;;;;;5070212;28;20034;-79
2022/02/07 02:16:09;;;;;;;0.10;0.10;;;;;;;;;;5068051;28;20039;-79
2022/02/07 02:38:24;;;;;;;0.10;0.10;;;;;;;;;;5027461;28;20051;-77
2022/02/07 02:45:40;;;;;;;0.00;0.00;;;;;;;;;;5023612;28;20064;-77
2022/02/07 02:48:11;;;;;;;0.10;0.10;;;;;;;;;;5029897;28;20405;-76
2022/02/07 02:50:41;;;;;;;0.10;0.10;;;;;;;;;;5011208;28;20579;-77
2022/02/07 02:53:08;;;;;;;0.10;0.10;;;;;;;;;;5014479;28;20839;-77
2022/02/07 02:55:35;;;;;;;0.03;0.03;;;;;;;;;;5011710;28;20086;-76
2022/02/07 02:58:01;;;;;;;0.10;0.10;;;;;;;;;;5007451;28;20083;-76
2022/02/07 03:00:29;;;;;;;0.10;0.10;;;;;;;;;;5004308;28;20041;-78
2022/02/07 03:02:55;;;;;;;0.10;0.10;;;;;;;;;;5023230;28;20287;-77
2022/02/07 03:05:21;;;;;;;0.10;0.10;;;;;;;;;;5067318;28;20032;-78
2022/02/07 03:07:48;;;;;;;0.10;0.10;;;;;;;;;;5069942;28;20059;-78
2022/02/07 03:10:42;;;;;;;0.10;0.10;;;;;;;;;;5070228;28;20278;-78
2022/02/07 03:18:25;;;;;;;0.10;0.10;;;;;;;;;;5071321;28;20082;-79
2022/02/07 03:20:51;;;;;;;0.10;0.10;;;;;;;;;;5083688;28;20571;-78
2022/02/07 03:23:18;;;;;;;0.10;0.10;;;;;;;;;;5068346;28;20285;-78
2022/02/07 03:25:44;;;;;;;0.30;0.30;;;;;;;;;;5061088;28;20044;-78
2022/02/07 03:28:11;;;;;;;0.10;0.10;;;;;;;;;;5052818;28;20040;-78
2022/02/07 03:30:37;;;;;;;0.10;0.10;;;;;;;;;;5070566;28;20139;-78
2022/02/07 03:33:04;;;;;;;0.10;0.10;;;;;;;;;;5075255;28;20028;-79
2022/02/07 03:35:30;;;;;;;;;;;;;;;;;;5073207;28;20028;-78
2022/02/07 03:37:56;;;;;;;0.00;0.00;;;;;;;;;;5070319;28;19923;-78
2022/02/07 03:40:22;;;;;;;0.10;0.10;;;;;;;;;;5048353;28;20035;-78
2022/02/07 03:42:48;;;;;;;1.00;0.93;;;;;;;;;;5069831;28;20476;-78
2022/02/07 03:45:14;;;;;;;0.10;0.10;;;;;;;;;;5068062;28;20037;-78
2022/02/07 03:47:40;;;;;;;0.10;0.10;;;;;;;;;;5071456;28;20036;-77
2022/02/07 03:50:07;;;;;;;0.30;0.23;;;;;;;;;;5053050;28;20098;-78
2022/02/07 03:52:33;;;;;;;0.00;0.00;;;;;;;;;;5072419;28;20052;-77
2022/02/07 03:54:59;;;;;;;0.13;0.13;;;;;;;;;;5067534;28;20032;-77
2022/02/07 03:57:25;;;;;;;0.47;0.20;;;;;;;;;;5073559;28;20531;-77
2022/02/07 03:59:51;;;;;;;0.10;0.10;;;;;;;;;;5067478;28;20032;-78
2022/02/07 04:02:17;;;;;;;0.10;0.10;;;;;;;;;;5070743;28;20439;-79
2022/02/07 04:04:48;;;;;;;0.10;0.10;;;;;;;;;;5072285;28;20044;-78
2022/02/07 04:07:16;;;;;;;0.85;0.50;;;;;;;;;;5070589;28;20043;-77
2022/02/07 04:09:46;;;;;;;0.13;0.13;;;;;;;;;;5073104;28;20028;-78
2022/02/07 04:12:17;;;;;;;0.85;0.57;;;;;;;;;;5071875;28;20039;-78
2022/02/07 04:14:43;;;;;;;0.10;0.10;;;;;;;;;;5070301;28;20035;-77
2022/02/07 04:17:14;;;;;;;0.20;0.20;;;;;;;;;;5067080;28;20077;-77
2022/02/07 04:19:40;;;;;;;0.20;0.20;;;;;;;;;;5069127;28;20031;-79
2022/02/07 04:22:08;;;;;;;0.40;0.40;;;;;;;;;;5063795;28;20043;-79
2022/02/07 04:24:34;;;;;;;0.10;0.10;;;;;;;;;;5071366;28;20076;-78
2022/02/07 04:27:01;;;;;;;0.10;0.10;;;;;;;;;;5064345;28;20038;-78
2022/02/07 04:29:27;;;;;;;0.10;0.10;;;;;;;;;;5057003;28;20025;-78
2022/02/07 04:31:53;;;;;;;0.55;0.55;;;;;;;;;;5067823;28;20443;-78
2022/02/07 04:34:19;;;;;;;0.10;0.10;;;;;;;;;;5073849;28;20059;-78
2022/02/07 04:36:50;;;;;;;0.10;0.10;;;;;;;;;;5073683;28;20297;-79
2022/02/07 04:39:16;;;;;;;0.10;0.10;;;;;;;;;;5072455;28;20024;-79
2022/02/07 04:41:43;;;;;;;3.10;2.00;;;;;;;;;;5069404;28;20028;-79
2022/02/07 04:44:15;;;;;;;0.10;0.10;;;;;;;;;;5069556;28;20270;-78
2022/02/07 04:47:14;;;;;;;0.10;0.10;;;;;;;;;;5065119;28;20537;-79
2022/02/07 04:52:06;;;;;;;0.10;0.10;;;;;;;;;;5069150;28;20040;-79
2022/02/07 04:54:48;;;;;;;0.13;0.13;;;;;;;;;;5066472;28;20040;-78
2022/02/07 05:15:59;;;;;;;0.30;0.30;;;;;;;;;;5071109;28;20088;-77
2022/02/07 05:18:28;;;;;;;0.28;0.28;;;;;;;;;;5073599;28;20046;-78
2022/02/07 05:20:54;;;;;;;0.20;0.20;;;;;;;;;;5080816;28;20063;-76
2022/02/07 05:23:20;;;;;;;0.37;0.27;;;;;;;;;;5079794;28;20029;-78
2022/02/07 05:25:46;;;;;;;6.33;1.13;;;;;;;;;;5071538;28;20299;-78
2022/02/07 05:28:12;;;;;;;1.88;1.77;;;;;;;;;;5049785;28;20052;-78
2022/02/07 05:30:38;;;;;;;0.30;0.30;;;;;;;;;;5048002;28;20481;-78
2022/02/07 05:33:04;;;;;;;0.97;0.97;;;;;;;;;;5068207;28;20119;-77
2022/02/07 05:35:30;;;;;;;0.10;0.10;;;;;;;;;;5065196;28;20113;-78
2022/02/07 05:37:56;;;;;;;0.23;0.23;;;;;;;;;;5068322;28;20078;-81
2022/02/07 05:40:37;;;;;;;0.13;0.13;;;;;;;;;;5064884;28;20036;-79
2022/02/07 05:43:04;;;;;;;0.10;0.10;;;;;;;;;;5065531;28;20024;-80
2022/02/07 05:45:30;;;;;;;0.10;0.10;;;;;;;;;;5064290;28;20140;-79
2022/02/07 05:47:56;;;;;;;0.10;0.10;;;;;;;;;;5051702;28;20043;-79
2022/02/07 05:50:22;;;;;;;1.40;1.13;;;;;;;;;;5067866;28;20282;-81
2022/02/07 05:52:48;;;;;;;0.28;0.28;;;;;;;;;;5072478;28;20119;-79
2022/02/07 05:55:15;;;;;;;0.10;0.10;;;;;;;;;;5078908;28;20045;-79
2022/02/07 05:57:41;;;;;;;1.02;0.93;;;;;;;;;;5069315;28;20123;-78
2022/02/07 06:00:08;;;;;;;12.50;1.95;;;;;;;;;;5076844;28;20075;-79
2022/02/07 06:02:35;;;;;;;1.90;1.05;;;;;;;;;;5068448;28;20058;-79
2022/02/07 06:05:01;;;;;;;1.00;0.98;;;;;;;;;;5067067;28;20039;-78
2022/02/07 06:07:27;;;;;;;1.90;1.63;;;;;;;;;;5065880;28;20115;-80
2022/02/07 06:09:53;;;;;;;1.88;1.08;;;;;;;;;;5076286;28;20089;-78
2022/02/07 06:12:19;;;;;;;0.55;0.50;;;;;;;;;;5070847;28;20028;-78
2022/02/07 06:14:45;;;;;;;0.43;0.43;;;;;;;;;;5051825;28;20127;-76
2022/02/07 06:17:11;;;;;;;1.73;1.60;;;;;;;;;;5074164;28;20028;-84
2022/02/07 06:19:54;;;;;;;1.25;1.15;;;;;;;;;;5071371;28;20036;-82
2022/02/07 06:22:20;;;;;;;3.15;1.30;;;;;;;;;;5071288;28;20060;-81
2022/02/07 06:24:46;;;;;;;0.20;0.20;;;;;;;;;;5070014;28;20040;-79
2022/02/07 06:27:13;;;;;;;1.45;1.45;;;;;;;;;;5076143;28;20952;-80
2022/02/07 06:29:39;;;;;;;0.25;0.25;;;;;;;;;;5071025;28;20035;-79
2022/02/07 06:32:05;;;;;;;0.93;0.57;;;;;;;;;;5076592;28;20044;-80
2022/02/07 06:34:32;;;;;;;1.13;1.10;;;;;;;;;;5075878;28;20906;-80
2022/02/07 06:36:58;;;;;;;0.20;0.20;;;;;;;;;;5068523;28;20093;-84
2022/02/07 06:39:24;;;;;;;2.08;1.30;;;;;;;;;;5080677;28;20162;-85
2022/02/07 06:41:52;;;;;;;0.30;0.30;;;;;;;;;;5068859;28;20609;-82
2022/02/07 06:44:18;;;;;;;0.40;0.40;;;;;;;;;;5074551;28;20292;-80
2022/02/07 06:46:44;;;;;;;0.10;0.10;;;;;;;;;;5083039;28;20176;-79
2022/02/07 06:49:10;;;;;;;0.10;0.10;;;;;;;;;;5068767;28;20124;-79
2022/02/07 06:51:36;;;;;;;0.57;0.57;;;;;;;;;;5053198;28;20035;-79
2022/02/07 06:54:03;;;;;;;0.20;0.20;;;;;;;;;;5070445;28;20075;-79
2022/02/07 06:56:29;;;;;;;0.50;0.50;;;;;;;;;;5075389;28;20036;-81
2022/02/07 06:58:55;;;;;;;16.57;0.77;;;;;;;;;;5059812;28;20035;-79
2022/02/07 07:01:21;;;;;;;0.68;0.68;;;;;;;;;;5084351;28;20024;-80
2022/02/07 07:03:47;;;;;;;4.40;1.60;;;;;;;;;;5085409;28;20029;-80
2022/02/07 07:06:14;;;;;;;1.60;1.50;;;;;;;;;;5077982;28;21225;-80
2022/02/07 07:08:48;;;;;;;1.35;1.25;;;;;;;;;;5078628;28;20023;-80
2022/02/07 07:11:18;;;;;;;2.45;1.83;;;;;;;;;;5081378;28;20034;-79
2022/02/07 07:13:51;;;;;;;0.10;0.10;;;;;;;;;;5085742;28;20047;-80
2022/02/07 07:18:49;;;;;;;0.08;0.08;;;;;;;;;;5081646;28;20036;-80
2022/02/07 07:21:15;;;;;;;0.10;0.10;;;;;;;;;;5081288;28;20631;-78
2022/02/07 07:23:41;;;;;;;0.10;0.10;;;;;;;;;;5075809;28;20047;-80
2022/02/07 07:26:07;;;;;;;0.10;0.10;;;;;;;;;;5078892;28;20036;-80
2022/02/07 07:28:34;;;;;;;0.50;0.40;;;;;;;;;;5065945;28;20032;-79
2022/02/07 07:31:01;;;;;;;;;;;;;;;;;;5084180;28;20067;-78
2022/02/07 07:33:29;;;;;;;0.20;0.20;;;;;;;;;;5083524;28;20038;-79
2022/02/07 07:35:58;;;;;;;1.23;1.00;;;;;;;;;;5086707;28;20510;-79
2022/02/07 07:38:24;;;;;;;0.85;0.85;;;;;;;;;;5079013;28;20028;-82
2022/02/07 07:40:51;;;;;;;0.10;0.10;;;;;;;;;;5084262;28;20028;-85
2022/02/07 07:43:17;;;;;;;0.45;0.45;;;;;;;;;;5080163;28;20475;-85
2022/02/07 07:45:47;;;;;;;0.10;0.10;;;;;;;;;;5081028;28;20055;-86
2022/02/07 07:48:20;;;;;;;0.25;0.25;;;;;;;;;;5062235;28;20495;-85
2022/02/07 08:04:14;;;;;;;0.95;0.95;;;;;;;;;;5066680;28;20580;-85
2022/02/07 08:06:49;;;;;;;0.65;0.65;;;;;;;;;;5080688;28;20039;-85
2022/02/07 08:09:23;;;;;;;0.20;0.20;;;;;;;;;;5061706;28;20032;-85
2022/02/07 08:11:49;;;;;;;0.40;0.40;;;;;;;;;;5077528;28;20039;-86
2022/02/07 08:14:15;;;;;;;0.70;0.70;;;;;;;;;;5074571;28;20513;-86
2022/02/07 08:16:41;;;;;;;1.50;0.77;;;;;;;;;;5066584;28;20397;-85
2022/02/07 08:19:08;;;;;;;5.53;2.13;;;;;;;;;;5081020;28;20280;-86
2022/02/07 08:21:37;;;;;;;1.45;1.33;;;;;;;;;;5080934;28;20901;-85
2022/02/07 08:24:04;;;;;;;2.38;0.70;;;;;;;;;;5070901;28;20029;-85
2022/02/07 08:26:30;;;;;;;1.58;1.00;;;;;;;;;;5075380;28;20036;-85
2022/02/07 08:28:56;;;;;;;0.68;0.68;;;;;;;;;;5077538;28;20024;-85
2022/02/07 08:31:24;;;;;;;1.10;0.88;;;;;;;;;;5078882;28;20067;-85
2022/02/07 08:33:50;;;;;;;1.95;0.95;;;;;;;;;;5062781;28;20089;-86
2022/02/07 08:36:16;;;;;;;0.82;0.82;;;;;;;;;;5079629;28;20066;-85
2022/02/07 08:38:42;;;;;;;1.08;1.02;;;;;;;;;;5075742;28;20549;-86
2022/02/07 08:41:08;;;;;;;3.72;2.40;;;;;;;;;;5077882;28;20028;-85
2022/02/07 08:43:35;;;;;;;3.63;2.17;;;;;;;;;;5081547;28;20032;-85
2022/02/07 08:46:01;;;;;;;5.17;2.50;;;;;;;;;;5065805;28;20367;-85
2022/02/07 08:48:27;;;;;;;0.27;0.27;;;;;;;;;;5079959;28;20115;-85
2022/02/07 08:50:55;;;;;;;5.72;2.80;;;;;;;;;;5069116;28;20082;-86
2022/02/07 08:53:23;;;;;;;3.20;1.33;;;;;;;;;;5072817;28;20040;-85
2022/02/07 08:55:52;;;;;;;4.95;1.13;;;;;;;;;;5077208;28;20042;-84
2022/02/07 08:58:22;;;;;;;0.77;0.77;;;;;;;;;;5065772;28;20023;-85
2022/02/07 09:11:04;;;;;;;1.02;0.93;;;;;;;;;;5069091;28;20024;-86
2022/02/07 09:13:32;;;;;;;0.10;0.10;;;;;;;;;;5066705;28;20033;-85
2022/02/07 09:16:15;;;;;;;0.30;0.30;;;;;;;;;;5080227;28;20020;-85
2022/02/07 09:18:42;;;;;;;2.03;1.27;;;;;;;;;;5057408;28;20750;-84
2022/02/07 09:21:09;;;;;;;0.20;0.20;;;;;;;;;;5058394;28;20082;-84
2022/02/07 09:23:36;;;;;;;0.82;0.50;;;;;;;;;;5071634;28;20457;-84
2022/02/07 09:26:02;;;;;;;0.40;0.40;;;;;;;;;;5073476;28;20184;-84
2022/02/07 09:28:28;;;;;;;1.27;1.23;;;;;;;;;;5078250;28;20035;-84
2022/02/07 09:30:55;;;;;;;0.30;0.30;;;;;;;;;;5079873;28;20738;-85
2022/02/07 09:33:21;;;;;;;0.32;0.32;;;;;;;;;;5078567;28;20058;-85
2022/02/07 09:35:52;;;;;;;3.42;1.85;;;;;;;;;;5080839;28;20411;-84
2022/02/07 09:38:19;;;;;;;0.15;0.15;;;;;;;;;;5075976;28;20626;-84
2022/02/07 09:40:50;;;;;;;0.20;0.20;;;;;;;;;;5075288;28;20028;-85
2022/02/07 09:43:18;;;;;;;0.10;0.10;;;;;;;;;;5079815;28;20020;-84
2022/02/07 09:45:45;;;;;;;0.10;0.10;;;;;;;;;;5079768;28;20044;-85
2022/02/07 09:48:13;;;;;;;0.63;0.30;;;;;;;;;;5077600;28;20028;-84
2022/02/07 09:50:40;;;;;;;0.32;0.32;;;;;;;;;;5080771;28;20107;-84
2022/02/07 09:53:06;;;;;;;0.33;0.33;;;;;;;;;;5082558;28;20036;-84
2022/02/07 09:55:33;;;;;;;0.30;0.30;;;;;;;;;;5081454;28;20397;-82
2022/02/07 09:58:00;;;;;;;0.20;0.20;;;;;;;;;;5082155;28;20059;-84
2022/02/07 10:00:31;;;;;;;0.10;0.10;;;;;;;;;;5085590;28;20456;-84
2022/02/07 10:03:13;;;;;;;0.20;0.20;;;;;;;;;;5083358;28;20036;-84
2022/02/07 10:05:48;;;;;;;4.57;0.73;;;;;;;;;;5084007;28;20036;-84
2022/02/07 10:11:09;;;;;;;0.50;0.50;;;;;;;;;;5079487;28;20039;-84
2022/02/07 10:13:50;;;;;;;0.35;0.35;;;;;;;;;;5080784;28;20062;-84
2022/02/07 10:38:55;;;;;;;0.30;0.30;;;;;;;;;;5075046;28;20449;-84
2022/02/07 10:44:33;;;;;;;1.25;0.88;;;;;;;;;;5071942;28;20716;-83
2022/02/07 10:47:06;;;;;;;0.40;0.40;;;;;;;;;;5079110;28;20518;-83
2022/02/07 10:49:32;;;;;;;0.15;0.15;;;;;;;;;;5081487;28;20028;-81
2022/02/07 10:51:59;;;;;;;0.10;0.10;;;;;;;;;;5068391;28;20762;-83
2022/02/07 10:54:25;;;;;;;1.80;0.32;;;;;;;;;;5073214;28;20068;-82
2022/02/07 10:56:52;;;;;;;0.20;0.20;;;;;;;;;;5067516;28;20507;-83
2022/02/07 10:59:21;;;;;;;0.15;0.15;;;;;;;;;;5070820;28;20043;-83
2022/02/07 11:04:28;;;;;;;0.20;0.20;;;;;;;;;;5070711;28;22115;-82
2022/02/07 11:06:59;;;;;;;13.70;0.90;;;;;;;;;;5074674;28;20048;-82
2022/02/07 11:09:37;;;;;;;0.20;0.20;;;;;;;;;;5072640;28;20028;-82
2022/02/07 11:12:24;;;;;;;0.45;0.45;;;;;;;;;;5084077;28;20039;-83
2022/02/07 11:15:09;;;;;;;0.10;0.10;;;;;;;;;;5070167;28;20504;-81
2022/02/07 11:28:28;;;;;;;0.85;0.52;;;;;;;;;;5075503;28;20037;-82
2022/02/07 11:30:57;;;;;;;0.10;0.10;;;;;;;;;;5072736;28;20036;-81
2022/02/07 11:33:36;;;;;;;0.13;0.13;;;;;;;;;;5071457;28;20839;-83
2022/02/07 11:36:04;;;;;;;0.10;0.10;;;;;;;;;;5071265;28;20063;-83
2022/02/07 11:38:30;;;;;;;0.20;0.20;;;;;;;;;;5074722;28;20778;-83
2022/02/07 11:40:56;;;;;;;0.10;0.10;;;;;;;;;;5068206;28;20507;-83
2022/02/07 11:43:23;;;;;;;0.32;0.32;;;;;;;;;;5069265;28;20123;-82
2022/02/07 11:45:57;;;;;;;0.20;0.20;;;;;;;;;;5066616;28;20111;-81
2022/02/07 11:48:29;;;;;;;0.10;0.10;;;;;;;;;;5065340;28;20044;-82
2022/02/07 11:51:00;;;;;;;0.10;0.10;;;;;;;;;;5065436;28;20096;-83
2022/02/07 11:53:34;;;;;;;0.10;0.10;;;;;;;;;;5068039;28;20052;-82
2022/02/07 11:56:14;;;;;;;0.20;0.20;;;;;;;;;;5073376;28;20024;-82
2022/02/07 11:58:46;;;;;;;0.10;0.10;;;;;;;;;;5067833;28;20059;-82
2022/02/07 12:01:21;;;;;;;0.10;0.10;;;;;;;;;;5069349;28;20031;-82
2022/02/07 12:03:54;;;;;;;0.10;0.10;;;;;;;;;;5069641;28;20624;-82
2022/02/07 12:06:24;;;;;;;0.10;0.10;;;;;;;;;;5072710;28;20105;-82
2022/02/07 12:08:50;;;;;;;1.08;0.80;;;;;;;;;;5069526;28;20035;-83
2022/02/07 12:11:16;;;;;;;0.10;0.10;;;;;;;;;;5086584;28;20039;-83
2022/02/07 12:13:46;;;;;;;0.75;0.35;;;;;;;;;;5071880;28;20119;-83
2022/02/07 12:16:12;;;;;;;0.10;0.10;;;;;;;;;;5069478;28;20040;-81
2022/02/07 12:18:39;;;;;;;0.10;0.10;;;;;;;;;;5074792;28;20028;-83
2022/02/07 12:21:14;;;;;;;0.10;0.10;;;;;;;;;;5065509;28;20047;-80
2022/02/07 12:23:40;;;;;;;0.10;0.10;;;;;;;;;;5072203;28;20031;-83
2022/02/07 12:26:10;;;;;;;0.28;0.28;;;;;;;;;;5073028;28;20044;-83
2022/02/07 12:28:49;;;;;;;1.65;0.50;;;;;;;;;;5065584;28;21760;-80
2022/02/07 12:31:20;;;;;;;0.10;0.10;;;;;;;;;;5047043;28;21653;-83
2022/02/07 12:33:55;;;;;;;0.10;0.10;;;;;;;;;;5083061;28;20039;-82
2022/02/07 12:36:22;;;;;;;0.10;0.10;;;;;;;;;;5078261;28;20032;-83
2022/02/07 12:38:48;;;;;;;5.07;0.73;;;;;;;;;;5072334;28;20086;-83
2022/02/07 12:41:15;;;;;;;0.10;0.10;;;;;;;;;;5051313;28;20052;-83
2022/02/07 12:43:44;;;;;;;0.10;0.10;;;;;;;;;;5070875;28;20028;-81
2022/02/07 12:46:11;;;;;;;0.10;0.10;;;;;;;;;;5073836;28;20558;-82
2022/02/07 12:48:41;;;;;;;;;;;;;;;;;;5071247;28;20043;-81
2022/02/07 12:51:07;;;;;;;0.10;0.10;;;;;;;;;;5076562;28;19918;-83
2022/02/07 12:53:33;;;;;;;0.10;0.10;;;;;;;;;;5074447;28;20126;-83
2022/02/07 12:56:00;;;;;;;0.20;0.20;;;;;;;;;;5072747;28;20385;-83
2022/02/07 12:58:28;;;;;;;0.10;0.10;;;;;;;;;;5071487;28;20033;-82
2022/02/07 13:00:54;;;;;;;0.10;0.10;;;;;;;;;;5070414;28;20028;-83
2022/02/07 13:03:20;;;;;;;0.63;0.50;;;;;;;;;;5067053;28;20432;-80
2022/02/07 13:05:47;;;;;;;0.20;0.20;;;;;;;;;;5070165;28;20028;-81
2022/02/07 13:08:16;;;;;;;0.38;0.30;;;;;;;;;;5067567;28;20074;-80
2022/02/07 13:10:51;;;;;;;0.10;0.10;;;;;;;;;;5064435;28;20041;-81
2022/02/07 13:13:26;;;;;;;0.10;0.10;;;;;;;;;;5065579;28;20686;-82
2022/02/07 13:15:52;;;;;;;0.10;0.10;;;;;;;;;;5065419;28;20028;-81
2022/02/07 13:18:21;;;;;;;0.20;0.20;;;;;;;;;;5068763;28;20083;-82
2022/02/07 13:20:47;;;;;;;0.63;0.25;;;;;;;;;;5065659;28;20112;-83
2022/02/07 13:23:15;;;;;;;0.20;0.20;;;;;;;;;;5069168;28;20098;-83
2022/02/07 13:25:42;;;;;;;0.10;0.10;;;;;;;;;;5068759;28;20028;-81
2022/02/07 13:28:18;;;;;;;0.10;0.10;;;;;;;;;;5075842;28;20123;-81
2022/02/07 13:30:47;;;;;;;1.35;1.25;;;;;;;;;;5073900;28;20059;-84
2022/02/07 13:33:13;;;;;;;0.98;0.88;;;;;;;;;;5069412;28;20035;-83
2022/02/07 13:35:42;;;;;;;2.23;1.27;;;;;;;;;;5069803;28;20524;-83
2022/02/07 13:38:08;;;;;;;1.63;1.55;;;;;;;;;;5067071;28;20032;-83
2022/02/07 13:40:39;;;;;;;0.83;0.83;;;;;;;;;;5075249;28;20164;-81
2022/02/07 13:43:08;;;;;;;0.10;0.10;;;;;;;;;;5076493;28;20291;-83
2022/02/07 13:45:35;;;;;;;0.10;0.10;;;;;;;;;;5070136;28;20032;-82
2022/02/07 13:48:02;;;;;;;0.65;0.40;;;;;;;;;;5070978;28;20036;-83
2022/02/07 13:50:28;;;;;;;;;;;;;;;;;;5073658;28;20036;-83
2022/02/07 13:52:55;;;;;;;0.10;0.10;;;;;;;;;;5073815;28;19919;-83
2022/02/07 13:55:28;;;;;;;0.25;0.25;;;;;;;;;;5059326;28;20385;-82
2022/02/07 13:57:54;;;;;;;0.10;0.10;;;;;;;;;;5065358;28;20062;-83
2022/02/07 14:00:25;;;;;;;0.10;0.10;;;;;;;;;;5074383;28;20024;-83
2022/02/07 14:03:10;;;;;;;0.10;0.10;;;;;;;;;;5069071;28;20044;-83
2022/02/07 14:05:38;;;;;;;0.10;0.10;;;;;;;;;;5073566;28;20051;-83
2022/02/07 14:08:05;;;;;;;2.83;0.47;;;;;;;;;;5065484;28;20036;-83
2022/02/07 14:10:38;;;;;;;0.10;0.10;;;;;;;;;;5056735;28;20074;-83
2022/02/07 14:13:08;;;;;;;0.10;0.10;;;;;;;;;;5066367;28;20041;-83
2022/02/07 14:15:34;;;;;;;2.17;1.85;;;;;;;;;;5071883;28;20486;-83
2022/02/07 14:18:04;;;;;;;0.10;0.10;;;;;;;;;;5071844;28;20123;-82
2022/02/07 14:20:33;;;;;;;0.10;0.10;;;;;;;;;;5069486;28;20499;-83
2022/02/07 14:22:59;;;;;;;0.10;0.10;;;;;;;;;;5068863;28;20028;-83
2022/02/07 14:25:28;;;;;;;0.63;0.43;;;;;;;;;;5075208;28;20101;-83
2022/02/07 14:27:55;;;;;;;2.80;1.55;;;;;;;;;;5078079;28;20032;-82
2022/02/07 14:30:23;;;;;;;0.10;0.10;;;;;;;;;;5071899;28;20028;-83
2022/02/07 14:32:49;;;;;;;0.10;0.10;;;;;;;;;;5059114;28;20055;-82
2022/02/07 14:35:16;;;;;;;2.97;2.72;;;;;;;;;;5071221;28;20075;-82
2022/02/07 14:37:42;;;;;;;0.10;0.10;;;;;;;;;;5050634;28;20521;-82
2022/02/07 14:40:08;;;;;;;0.10;0.10;;;;;;;;;;5078350;28;20100;-82
2022/02/07 14:42:34;;;;;;;0.00;0.00;;;;;;;;;;5073683;28;20036;-83
2022/02/07 14:45:18;;;;;;;1.45;0.88;;;;;;;;;;5076425;28;20097;-83
2022/02/07 14:50:11;;;;;;;0.10;0.10;;;;;;;;;;5077733;28;20028;-83
2022/02/07 14:52:37;;;;;;;0.10;0.10;;;;;;;;;;5077453;28;20076;-83
2022/02/07 14:55:03;;;;;;;0.10;0.10;;;;;;;;;;5079718;28;20039;-83
2022/02/07 14:57:30;;;;;;;0.10;0.10;;;;;;;;;;5081688;28;20028;-83
2022/02/07 14:59:56;;;;;;;0.10;0.10;;;;;;;;;;5082628;28;20134;-82
2022/02/07 15:02:23;;;;;;;0.10;0.10;;;;;;;;;;5076215;28;20054;-83
2022/02/07 15:04:49;;;;;;;;;;;;;;;;;;5081638;28;20423;-83
2022/02/07 15:07:16;;;;;;;0.10;0.10;;;;;;;;;;5081230;28;19969;-82
2022/02/07 15:09:42;;;;;;;0.10;0.10;;;;;;;;;;5081615;28;20137;-83
2022/02/07 15:12:08;;;;;;;0.13;0.13;;;;;;;;;;5067833;28;20170;-83
2022/02/07 15:14:35;;;;;;;0.10;0.10;;;;;;;;;;5077052;28;20028;-83
2022/02/07 15:17:04;;;;;;;0.10;0.10;;;;;;;;;;5077685;28;20098;-82
2022/02/07 15:19:30;;;;;;;0.20;0.20;;;;;;;;;;5068826;28;20174;-83
2022/02/07 15:21:57;;;;;;;0.10;0.10;;;;;;;;;;5063081;28;20028;-82
2022/02/07 15:24:25;;;;;;;0.15;0.15;;;;;;;;;;5068316;28;20428;-82
2022/02/07 15:26:51;;;;;;;0.60;0.60;;;;;;;;;;5075090;28;20035;-83
2022/02/07 15:29:17;;;;;;;0.83;0.30;;;;;;;;;;5072670;28;20035;-83
2022/02/07 15:31:55;;;;;;;0.10;0.10;;;;;;;;;;5054422;28;20043;-83
2022/02/07 15:34:21;;;;;;;0.10;0.10;;;;;;;;;;5070110;28;20108;-82
2022/02/07 15:36:47;;;;;;;0.10;0.10;;;;;;;;;;5067917;28;20028;-82
2022/02/07 15:39:14;;;;;;;0.10;0.10;;;;;;;;;;5077941;28;20036;-83
2022/02/07 15:41:43;;;;;;;0.10;0.10;;;;;;;;;;5069231;28;20464;-80
2022/02/07 15:44:10;;;;;;;0.10;0.10;;;;;;;;;;5062439;28;20512;-83
2022/02/07 15:46:36;;;;;;;0.10;0.10;;;;;;;;;;5070231;28;20101;-83
2022/02/07 15:49:03;;;;;;;0.10;0.10;;;;;;;;;;5087537;28;20110;-83
2022/02/07 15:51:29;;;;;;;;;;;;;;;;;;5063452;28;20028;-82
2022/02/07 15:53:55;;;;;;;0.10;0.10;;;;;;;;;;5070228;28;19920;-83
2022/02/07 15:56:21;;;;;;;0.10;0.10;;;;;;;;;;5071319;28;20499;-83
2022/02/07 15:59:19;;;;;;;0.10;0.10;;;;;;;;;;5052932;28;20518;-83
2022/02/07 16:01:45;;;;;;;0.10;0.10;;;;;;;;;;5070589;28;20035;-83
2022/02/07 16:04:11;;;;;;;0.10;0.10;;;;;;;;;;5069115;28;20028;-82
2022/02/07 16:06:37;;;;;;;0.10;0.10;;;;;;;;;;5068856;28;20048;-83
2022/02/07 16:09:03;;;;;;;0.10;0.10;;;;;;;;;;5062787;28;20055;-83
2022/02/07 16:11:31;;;;;;;0.20;0.20;;;;;;;;;;5072015;28;20039;-83
2022/02/07 16:13:58;;;;;;;0.35;0.35;;;;;;;;;;5078268;28;20813;-85
2022/02/07 16:16:29;;;;;;;0.60;0.60;;;;;;;;;;5070856;28;20112;-84
2022/02/07 16:18:55;;;;;;;0.30;0.30;;;;;;;;;;5068857;28;21107;-83
2022/02/07 16:21:21;;;;;;;0.10;0.10;;;;;;;;;;5049071;28;20043;-83
2022/02/07 16:23:47;;;;;;;3.55;0.85;;;;;;;;;;5067428;28;20547;-84
2022/02/07 16:26:13;;;;;;;0.57;0.57;;;;;;;;;;5052416;28;20494;-83
2022/02/07 16:28:40;;;;;;;0.20;0.20;;;;;;;;;;5076289;28;20122;-83
2022/02/07 16:31:07;;;;;;;0.13;0.13;;;;;;;;;;5074270;28;20040;-85
2022/02/07 16:33:34;;;;;;;0.30;0.30;;;;;;;;;;5073383;28;20052;-85
2022/02/07 16:36:02;;;;;;;0.23;0.23;;;;;;;;;;5072592;28;20189;-85
2022/02/07 16:38:28;;;;;;;0.20;0.20;;;;;;;;;;5055608;28;20024;-85
2022/02/07 16:40:55;;;;;;;0.50;0.50;;;;;;;;;;5073047;28;20151;-84
2022/02/07 16:43:26;;;;;;;0.43;0.43;;;;;;;;;;5067291;28;20936;-85
2022/02/07 16:48:21;;;;;;;0.10;0.10;;;;;;;;;;5078971;28;20024;-85
2022/02/07 16:50:47;;;;;;;1.17;1.08;;;;;;;;;;5066248;28;20028;-86
2022/02/07 16:53:14;;;;;;;0.90;0.90;;;;;;;;;;5068580;28;20075;-87
2022/02/07 16:55:40;;;;;;;0.10;0.10;;;;;;;;;;5067701;28;20036;-86
2022/02/07 16:58:07;;;;;;;5.68;3.03;;;;;;;;;;5071267;28;20767;-86
2022/02/07 17:00:33;;;;;;;0.10;0.10;;;;;;;;;;5071795;28;20024;-86
2022/02/07 17:02:59;;;;;;;0.30;0.30;;;;;;;;;;5067883;28;20450;-90
2022/02/07 17:05:25;;;;;;;4.70;0.33;;;;;;;;;;5068324;28;20043;-90
2022/02/07 17:07:51;;;;;;;1.90;1.80;;;;;;;;;;5068859;28;20039;-88
2022/02/07 17:10:18;;;;;;;0.10;0.10;;;;;;;;;;5071793;28;20024;-89
2022/02/07 17:12:44;;;;;;;0.10;0.10;;;;;;;;;;5065636;28;20059;-86
2022/02/07 17:15:13;;;;;;;0.38;0.38;;;;;;;;;;5074990;28;20671;-93
2022/02/07 17:17:43;;;;;;;0.20;0.20;;;;;;;;;;5066070;28;21057;-91
2022/02/07 17:20:10;;;;;;;0.10;0.10;;;;;;;;;;5077858;28;20020;-87
2022/02/07 17:22:36;;;;;;;0.10;0.10;;;;;;;;;;5057583;28;20116;-84
2022/02/07 17:25:03;;;;;;;0.10;0.10;;;;;;;;;;5073859;28;20029;-88
2022/02/07 17:27:29;;;;;;;0.20;0.20;;;;;;;;;;5071056;28;20090;-87
2022/02/07 17:29:55;;;;;;;0.10;0.10;;;;;;;;;;5066905;28;20131;-87
2022/02/07 17:32:21;;;;;;;0.10;0.10;;;;;;;;;;5069480;28;20059;-87
2022/02/07 17:34:48;;;;;;;0.52;0.52;;;;;;;;;;5068755;28;20139;-88
2022/02/07 17:37:15;;;;;;;0.22;0.22;;;;;;;;;;5070141;28;20031;-88
2022/02/07 17:39:41;;;;;;;0.10;0.10;;;;;;;;;;5071202;28;20032;-87
2022/02/07 17:42:07;;;;;;;0.20;0.20;;;;;;;;;;5068521;28;20062;-89